Terminal Aerodrome Forecast
Issued by NWS

Home | Current Version | Previous Version | Text Only | Print | Product List | Glossary On
Versions: 1 2 3 4 5 6 7 8 9 10 11 12 13 14 15 16 17 18 19 20 21 22
404
FTUS43 KDLH 141736
TAFHYR
TAF
KHYR 141736Z 1418/1518 09009G17KT P6SM BKN200
     FM142200 07007KT P6SM -SHRA OVC050
     FM150400 03010KT P6SM -SHRA OVC015
     FM150800 36010KT 5SM -SHRA OVC015
     FM151100 34009KT P6SM OVC015
     FM151500 33008KT P6SM SCT050=

USA.gov is the U.S. government's official web portal to all federal, state and local government web resources and services.